sensor_id;sensor_type;location;lat;lon;timestamp;temperature;humidity
24260;DHT22;12384;48.112;18.418;2022-08-05T00:01:31;22.90;54.20
24260;DHT22;12384;48.112;18.418;2022-08-05T00:04:14;22.90;54.10
24260;DHT22;12384;48.112;18.418;2022-08-05T00:06:43;22.90;54.40
24260;DHT22;12384;48.112;18.418;2022-08-05T00:09:13;22.80;54.60
24260;DHT22;12384;48.112;18.418;2022-08-05T00:11:48;22.80;54.60
24260;DHT22;12384;48.112;18.418;2022-08-05T00:14:25;22.80;54.70
24260;DHT22;12384;48.112;18.418;2022-08-05T00:16:57;22.80;54.60
24260;DHT22;12384;48.112;18.418;2022-08-05T00:19:29;22.70;54.40
24260;DHT22;12384;48.112;18.418;2022-08-05T00:22:11;22.70;54.40
24260;DHT22;12384;48.112;18.418;2022-08-05T00:24:43;22.70;54.50
24260;DHT22;12384;48.112;18.418;2022-08-05T00:27:22;22.60;54.40
24260;DHT22;12384;48.112;18.418;2022-08-05T00:30:01;22.60;54.10
24260;DHT22;12384;48.112;18.418;2022-08-05T00:32:30;22.60;54.30
24260;DHT22;12384;48.112;18.418;2022-08-05T00:35:02;22.60;54.40
24260;DHT22;12384;48.112;18.418;2022-08-05T00:37:33;22.50;54.50
24260;DHT22;12384;48.112;18.418;2022-08-05T00:40:21;22.50;54.50
24260;DHT22;12384;48.112;18.418;2022-08-05T00:42:57;22.50;54.50
24260;DHT22;12384;48.112;18.418;2022-08-05T00:45:28;22.50;54.50
24260;DHT22;12384;48.112;18.418;2022-08-05T00:48:06;22.50;54.60
24260;DHT22;12384;48.112;18.418;2022-08-05T00:50:38;22.40;54.50
24260;DHT22;12384;48.112;18.418;2022-08-05T00:53:11;22.40;55.20
24260;DHT22;12384;48.112;18.418;2022-08-05T00:56:00;22.40;54.80
24260;DHT22;12384;48.112;18.418;2022-08-05T00:58:31;22.40;54.70
24260;DHT22;12384;48.112;18.418;2022-08-05T01:01:03;22.40;54.80
24260;DHT22;12384;48.112;18.418;2022-08-05T01:03:35;22.40;54.80
24260;DHT22;12384;48.112;18.418;2022-08-05T01:06:05;22.40;54.60
24260;DHT22;12384;48.112;18.418;2022-08-05T01:08:41;22.30;55.30
24260;DHT22;12384;48.112;18.418;2022-08-05T01:11:16;22.30;54.70
24260;DHT22;12384;48.112;18.418;2022-08-05T01:14:03;22.30;54.60
24260;DHT22;12384;48.112;18.418;2022-08-05T01:16:42;22.20;55.00
24260;DHT22;12384;48.112;18.418;2022-08-05T01:19:32;22.20;54.40
24260;DHT22;12384;48.112;18.418;2022-08-05T01:22:31;22.20;54.40
24260;DHT22;12384;48.112;18.418;2022-08-05T01:28:33;22.10;54.30
24260;DHT22;12384;48.112;18.418;2022-08-05T01:31:09;22.10;54.20
24260;DHT22;12384;48.112;18.418;2022-08-05T01:33:44;22.10;54.30
24260;DHT22;12384;48.112;18.418;2022-08-05T01:36:19;22.00;54.80
24260;DHT22;12384;48.112;18.418;2022-08-05T01:38:55;22.00;54.20
24260;DHT22;12384;48.112;18.418;2022-08-05T01:41:31;22.00;54.30
24260;DHT22;12384;48.112;18.418;2022-08-05T01:44:06;22.00;54.20
24260;DHT22;12384;48.112;18.418;2022-08-05T01:46:36;22.00;54.20
24260;DHT22;12384;48.112;18.418;2022-08-05T01:49:14;21.90;54.20
24260;DHT22;12384;48.112;18.418;2022-08-05T01:51:52;21.90;54.10
24260;DHT22;12384;48.112;18.418;2022-08-05T01:54:28;21.80;54.10
24260;DHT22;12384;48.112;18.418;2022-08-05T01:56:59;21.90;54.20
24260;DHT22;12384;48.112;18.418;2022-08-05T01:59:51;21.90;54.20
24260;DHT22;12384;48.112;18.418;2022-08-05T02:02:21;21.80;54.20
24260;DHT22;12384;48.112;18.418;2022-08-05T02:04:58;21.80;54.20
24260;DHT22;12384;48.112;18.418;2022-08-05T02:07:29;21.70;53.90
24260;DHT22;12384;48.112;18.418;2022-08-05T02:10:00;21.70;54.00
24260;DHT22;12384;48.112;18.418;2022-08-05T02:12:34;21.80;54.10
24260;DHT22;12384;48.112;18.418;2022-08-05T02:15:11;21.70;53.90
24260;DHT22;12384;48.112;18.418;2022-08-05T02:17:50;21.70;53.60
24260;DHT22;12384;48.112;18.418;2022-08-05T02:20:43;21.70;53.70
24260;DHT22;12384;48.112;18.418;2022-08-05T02:23:17;21.70;53.60
24260;DHT22;12384;48.112;18.418;2022-08-05T02:25:50;21.70;53.80
24260;DHT22;12384;48.112;18.418;2022-08-05T02:28:23;21.70;53.80
24260;DHT22;12384;48.112;18.418;2022-08-05T02:31:01;21.70;53.70
24260;DHT22;12384;48.112;18.418;2022-08-05T02:33:45;21.70;53.70
24260;DHT22;12384;48.112;18.418;2022-08-05T02:36:24;21.80;53.70
24260;DHT22;12384;48.112;18.418;2022-08-05T02:38:59;21.70;53.60
24260;DHT22;12384;48.112;18.418;2022-08-05T02:41:31;21.70;53.80
24260;DHT22;12384;48.112;18.418;2022-08-05T02:44:23;21.70;53.40
24260;DHT22;12384;48.112;18.418;2022-08-05T02:46:55;21.70;53.60
24260;DHT22;12384;48.112;18.418;2022-08-05T02:49:30;21.70;53.80
24260;DHT22;12384;48.112;18.418;2022-08-05T02:52:05;21.70;53.30
24260;DHT22;12384;48.112;18.418;2022-08-05T02:54:36;21.70;53.50
24260;DHT22;12384;48.112;18.418;2022-08-05T02:57:10;21.70;53.60
24260;DHT22;12384;48.112;18.418;2022-08-05T03:00:00;21.70;53.40
24260;DHT22;12384;48.112;18.418;2022-08-05T03:02:33;21.70;53.40
24260;DHT22;12384;48.112;18.418;2022-08-05T03:05:07;21.70;53.40
24260;DHT22;12384;48.112;18.418;2022-08-05T03:07:37;21.70;54.10
24260;DHT22;12384;48.112;18.418;2022-08-05T03:10:26;21.70;53.60
24260;DHT22;12384;48.112;18.418;2022-08-05T03:12:55;21.70;53.60
24260;DHT22;12384;48.112;18.418;2022-08-05T03:15:23;21.70;53.60
24260;DHT22;12384;48.112;18.418;2022-08-05T03:17:53;21.60;53.50
24260;DHT22;12384;48.112;18.418;2022-08-05T03:20:24;21.60;53.50
24260;DHT22;12384;48.112;18.418;2022-08-05T03:22:54;21.60;53.40
24260;DHT22;12384;48.112;18.418;2022-08-05T03:25:25;21.60;53.50
24260;DHT22;12384;48.112;18.418;2022-08-05T03:28:14;21.60;53.40
24260;DHT22;12384;48.112;18.418;2022-08-05T03:30:46;21.50;53.40
24260;DHT22;12384;48.112;18.418;2022-08-05T03:33:18;21.50;53.40
24260;DHT22;12384;48.112;18.418;2022-08-05T03:35:47;21.50;53.40
24260;DHT22;12384;48.112;18.418;2022-08-05T03:38:17;21.50;53.50
24260;DHT22;12384;48.112;18.418;2022-08-05T03:40:59;21.50;53.80
24260;DHT22;12384;48.112;18.418;2022-08-05T03:43:35;21.50;53.50
24260;DHT22;12384;48.112;18.418;2022-08-05T03:46:24;21.50;53.70
24260;DHT22;12384;48.112;18.418;2022-08-05T03:48:58;21.40;53.50
24260;DHT22;12384;48.112;18.418;2022-08-05T03:51:31;21.40;53.50
24260;DHT22;12384;48.112;18.418;2022-08-05T03:54:29;21.40;53.50
24260;DHT22;12384;48.112;18.418;2022-08-05T03:57:24;21.40;53.50
24260;DHT22;12384;48.112;18.418;2022-08-05T04:00:10;21.50;53.70
24260;DHT22;12384;48.112;18.418;2022-08-05T04:02:45;21.50;53.80
24260;DHT22;12384;48.112;18.418;2022-08-05T04:05:29;21.50;53.80
24260;DHT22;12384;48.112;18.418;2022-08-05T04:08:01;21.50;53.70
24260;DHT22;12384;48.112;18.418;2022-08-05T04:10:41;21.50;53.70
24260;DHT22;12384;48.112;18.418;2022-08-05T04:13:11;21.50;53.70
24260;DHT22;12384;48.112;18.418;2022-08-05T04:15:40;21.60;53.60
24260;DHT22;12384;48.112;18.418;2022-08-05T04:18:29;21.60;53.80
24260;DHT22;12384;48.112;18.418;2022-08-05T04:21:02;21.60;53.80
24260;DHT22;12384;48.112;18.418;2022-08-05T04:23:33;21.60;53.80
24260;DHT22;12384;48.112;18.418;2022-08-05T04:26:22;21.70;54.00
24260;DHT22;12384;48.112;18.418;2022-08-05T04:28:51;21.80;54.10
24260;DHT22;12384;48.112;18.418;2022-08-05T04:31:19;21.80;53.80
24260;DHT22;12384;48.112;18.418;2022-08-05T04:34:00;21.90;53.90
24260;DHT22;12384;48.112;18.418;2022-08-05T04:36:50;21.90;54.20
24260;DHT22;12384;48.112;18.418;2022-08-05T04:39:19;22.10;54.00
24260;DHT22;12384;48.112;18.418;2022-08-05T04:41:49;22.10;54.00
24260;DHT22;12384;48.112;18.418;2022-08-05T04:44:18;22.20;54.30
24260;DHT22;12384;48.112;18.418;2022-08-05T04:46:57;22.30;54.80
24260;DHT22;12384;48.112;18.418;2022-08-05T04:49:35;22.50;55.80
24260;DHT22;12384;48.112;18.418;2022-08-05T04:52:25;22.70;56.30
24260;DHT22;12384;48.112;18.418;2022-08-05T04:54:54;22.90;56.10
24260;DHT22;12384;48.112;18.418;2022-08-05T04:57:25;23.20;55.30
24260;DHT22;12384;48.112;18.418;2022-08-05T05:00:04;23.40;55.90
24260;DHT22;12384;48.112;18.418;2022-08-05T05:02:33;23.70;55.90
24260;DHT22;12384;48.112;18.418;2022-08-05T05:05:09;23.90;55.10
24260;DHT22;12384;48.112;18.418;2022-08-05T05:07:59;24.20;55.90
24260;DHT22;12384;48.112;18.418;2022-08-05T05:10:31;24.40;54.70
24260;DHT22;12384;48.112;18.418;2022-08-05T05:13:00;24.70;54.90
24260;DHT22;12384;48.112;18.418;2022-08-05T05:15:31;24.80;55.70
24260;DHT22;12384;48.112;18.418;2022-08-05T05:18:21;25.00;54.90
24260;DHT22;12384;48.112;18.418;2022-08-05T05:20:57;25.20;55.20
24260;DHT22;12384;48.112;18.418;2022-08-05T05:23:27;25.30;53.40
24260;DHT22;12384;48.112;18.418;2022-08-05T05:26:17;25.50;53.50
24260;DHT22;12384;48.112;18.418;2022-08-05T05:28:54;25.60;54.00
24260;DHT22;12384;48.112;18.418;2022-08-05T05:31:23;25.80;53.50
24260;DHT22;12384;48.112;18.418;2022-08-05T05:33:57;26.00;52.70
24260;DHT22;12384;48.112;18.418;2022-08-05T05:36:29;26.10;53.00
24260;DHT22;12384;48.112;18.418;2022-08-05T05:39:02;26.30;52.50
24260;DHT22;12384;48.112;18.418;2022-08-05T05:41:37;26.50;52.90
24260;DHT22;12384;48.112;18.418;2022-08-05T05:44:08;26.60;52.20
24260;DHT22;12384;48.112;18.418;2022-08-05T05:46:57;26.70;51.50
24260;DHT22;12384;48.112;18.418;2022-08-05T05:49:31;26.80;51.50
24260;DHT22;12384;48.112;18.418;2022-08-05T05:52:00;27.00;52.10
24260;DHT22;12384;48.112;18.418;2022-08-05T05:54:34;27.20;50.50
24260;DHT22;12384;48.112;18.418;2022-08-05T05:57:17;27.30;49.40
24260;DHT22;12384;48.112;18.418;2022-08-05T05:59:47;27.50;50.60
24260;DHT22;12384;48.112;18.418;2022-08-05T06:02:18;27.70;50.60
24260;DHT22;12384;48.112;18.418;2022-08-05T06:05:05;27.90;51.50
24260;DHT22;12384;48.112;18.418;2022-08-05T06:07:43;28.00;50.30
24260;DHT22;12384;48.112;18.418;2022-08-05T06:10:29;28.20;50.80
24260;DHT22;12384;48.112;18.418;2022-08-05T06:13:03;28.40;49.40
24260;DHT22;12384;48.112;18.418;2022-08-05T06:15:32;28.60;50.70
24260;DHT22;12384;48.112;18.418;2022-08-05T06:18:21;28.90;49.50
24260;DHT22;12384;48.112;18.418;2022-08-05T06:20:58;29.00;47.90
24260;DHT22;12384;48.112;18.418;2022-08-05T06:23:27;29.20;48.70
24260;DHT22;12384;48.112;18.418;2022-08-05T06:26:11;29.40;47.90
24260;DHT22;12384;48.112;18.418;2022-08-05T06:28:51;29.60;47.30
24260;DHT22;12384;48.112;18.418;2022-08-05T06:31:20;29.70;46.70
24260;DHT22;12384;48.112;18.418;2022-08-05T06:33:58;29.90;46.60
24260;DHT22;12384;48.112;18.418;2022-08-05T06:36:35;30.00;45.30
24260;DHT22;12384;48.112;18.418;2022-08-05T06:39:25;30.20;45.10
24260;DHT22;12384;48.112;18.418;2022-08-05T06:41:58;30.30;45.20
24260;DHT22;12384;48.112;18.418;2022-08-05T06:44:30;30.50;45.10
24260;DHT22;12384;48.112;18.418;2022-08-05T06:46:59;30.60;45.20
24260;DHT22;12384;48.112;18.418;2022-08-05T06:49:29;30.70;45.30
24260;DHT22;12384;48.112;18.418;2022-08-05T06:52:18;30.90;45.10
24260;DHT22;12384;48.112;18.418;2022-08-05T06:55:05;31.20;46.40
24260;DHT22;12384;48.112;18.418;2022-08-05T06:57:35;31.50;46.00
24260;DHT22;12384;48.112;18.418;2022-08-05T07:00:24;31.70;45.10
24260;DHT22;12384;48.112;18.418;2022-08-05T07:02:55;31.90;44.40
24260;DHT22;12384;48.112;18.418;2022-08-05T07:05:24;32.20;43.00
24260;DHT22;12384;48.112;18.418;2022-08-05T07:08:07;32.30;42.00
24260;DHT22;12384;48.112;18.418;2022-08-05T07:10:37;32.40;41.40
24260;DHT22;12384;48.112;18.418;2022-08-05T07:13:21;32.50;40.20
24260;DHT22;12384;48.112;18.418;2022-08-05T07:16:26;32.50;40.80
24260;DHT22;12384;48.112;18.418;2022-08-05T07:19:32;32.70;41.80
24260;DHT22;12384;48.112;18.418;2022-08-05T07:22:21;32.90;40.70
24260;DHT22;12384;48.112;18.418;2022-08-05T07:24:57;33.00;40.20
24260;DHT22;12384;48.112;18.418;2022-08-05T07:27:46;33.20;38.70
24260;DHT22;12384;48.112;18.418;2022-08-05T07:30:31;33.30;40.50
24260;DHT22;12384;48.112;18.418;2022-08-05T07:33:06;33.50;38.90
24260;DHT22;12384;48.112;18.418;2022-08-05T07:35:42;33.60;39.50
24260;DHT22;12384;48.112;18.418;2022-08-05T07:38:32;33.90;40.70
24260;DHT22;12384;48.112;18.418;2022-08-05T07:41:14;34.10;39.80
24260;DHT22;12384;48.112;18.418;2022-08-05T07:44:06;34.30;38.40
24260;DHT22;12384;48.112;18.418;2022-08-05T07:46:47;34.40;38.20
24260;DHT22;12384;48.112;18.418;2022-08-05T07:49:17;34.50;37.00
24260;DHT22;12384;48.112;18.418;2022-08-05T07:51:46;34.70;38.90
24260;DHT22;12384;48.112;18.418;2022-08-05T07:54:21;34.90;37.70
24260;DHT22;12384;48.112;18.418;2022-08-05T07:56:57;35.00;37.60
24260;DHT22;12384;48.112;18.418;2022-08-05T07:59:46;35.10;37.40
24260;DHT22;12384;48.112;18.418;2022-08-05T08:02:21;35.40;36.90
24260;DHT22;12384;48.112;18.418;2022-08-05T08:04:57;35.50;36.00
24260;DHT22;12384;48.112;18.418;2022-08-05T08:07:26;35.70;35.20
24260;DHT22;12384;48.112;18.418;2022-08-05T08:10:15;35.90;34.40
24260;DHT22;12384;48.112;18.418;2022-08-05T08:12:47;35.90;35.40
24260;DHT22;12384;48.112;18.418;2022-08-05T08:15:16;36.10;36.10
24260;DHT22;12384;48.112;18.418;2022-08-05T08:18:06;36.20;34.50
24260;DHT22;12384;48.112;18.418;2022-08-05T08:20:40;36.30;33.70
24260;DHT22;12384;48.112;18.418;2022-08-05T08:23:29;36.50;33.50
24260;DHT22;12384;48.112;18.418;2022-08-05T08:26:19;36.60;32.70
24260;DHT22;12384;48.112;18.418;2022-08-05T08:28:57;36.80;32.70
24260;DHT22;12384;48.112;18.418;2022-08-05T08:31:46;36.90;32.00
24260;DHT22;12384;48.112;18.418;2022-08-05T08:34:17;37.00;32.10
24260;DHT22;12384;48.112;18.418;2022-08-05T08:36:59;37.20;30.70
24260;DHT22;12384;48.112;18.418;2022-08-05T08:39:31;37.40;32.20
24260;DHT22;12384;48.112;18.418;2022-08-05T08:42:04;37.60;30.00
24260;DHT22;12384;48.112;18.418;2022-08-05T08:44:56;37.80;31.90
24260;DHT22;12384;48.112;18.418;2022-08-05T08:47:45;37.90;31.10
24260;DHT22;12384;48.112;18.418;2022-08-05T08:50:39;38.10;30.80
24260;DHT22;12384;48.112;18.418;2022-08-05T08:53:34;38.40;30.60
24260;DHT22;12384;48.112;18.418;2022-08-05T08:56:10;38.70;29.90
24260;DHT22;12384;48.112;18.418;2022-08-05T08:58:40;38.80;29.40
24260;DHT22;12384;48.112;18.418;2022-08-05T09:01:15;39.20;30.00
24260;DHT22;12384;48.112;18.418;2022-08-05T09:03:46;39.40;29.50
24260;DHT22;12384;48.112;18.418;2022-08-05T09:06:27;39.60;28.60
24260;DHT22;12384;48.112;18.418;2022-08-05T09:08:58;39.90;29.40
24260;DHT22;12384;48.112;18.418;2022-08-05T09:11:27;40.10;28.10
24260;DHT22;12384;48.112;18.418;2022-08-05T09:14:16;40.40;28.80
24260;DHT22;12384;48.112;18.418;2022-08-05T09:17:06;40.60;27.10
24260;DHT22;12384;48.112;18.418;2022-08-05T09:19:55;40.90;27.10
24260;DHT22;12384;48.112;18.418;2022-08-05T09:23:04;41.00;27.40
24260;DHT22;12384;48.112;18.418;2022-08-05T09:25:36;41.40;25.00
24260;DHT22;12384;48.112;18.418;2022-08-05T09:28:26;41.50;27.60
24260;DHT22;12384;48.112;18.418;2022-08-05T09:31:02;41.70;25.40
24260;DHT22;12384;48.112;18.418;2022-08-05T09:33:53;42.00;26.30
24260;DHT22;12384;48.112;18.418;2022-08-05T09:36:23;42.10;25.00
24260;DHT22;12384;48.112;18.418;2022-08-05T09:39:03;42.20;25.40
24260;DHT22;12384;48.112;18.418;2022-08-05T09:41:55;42.30;24.40
24260;DHT22;12384;48.112;18.418;2022-08-05T09:44:35;42.40;23.80
24260;DHT22;12384;48.112;18.418;2022-08-05T09:47:08;42.50;22.80
24260;DHT22;12384;48.112;18.418;2022-08-05T09:49:42;42.80;24.40
24260;DHT22;12384;48.112;18.418;2022-08-05T09:52:30;43.20;25.50
24260;DHT22;12384;48.112;18.418;2022-08-05T09:55:03;43.40;24.20
24260;DHT22;12384;48.112;18.418;2022-08-05T09:57:52;43.40;23.20
24260;DHT22;12384;48.112;18.418;2022-08-05T10:00:26;43.50;23.30
24260;DHT22;12384;48.112;18.418;2022-08-05T10:02:56;43.50;23.70
24260;DHT22;12384;48.112;18.418;2022-08-05T10:05:27;43.60;23.50
24260;DHT22;12384;48.112;18.418;2022-08-05T10:08:01;43.70;23.30
24260;DHT22;12384;48.112;18.418;2022-08-05T10:10:52;43.80;24.40
24260;DHT22;12384;48.112;18.418;2022-08-05T10:13:26;43.70;22.50
24260;DHT22;12384;48.112;18.418;2022-08-05T10:16:31;44.00;23.30
24260;DHT22;12384;48.112;18.418;2022-08-05T10:19:07;44.20;22.40
24260;DHT22;12384;48.112;18.418;2022-08-05T10:21:38;44.40;23.50
24260;DHT22;12384;48.112;18.418;2022-08-05T10:24:07;44.40;23.30
24260;DHT22;12384;48.112;18.418;2022-08-05T10:26:42;44.70;23.30
24260;DHT22;12384;48.112;18.418;2022-08-05T10:29:19;45.00;21.90
24260;DHT22;12384;48.112;18.418;2022-08-05T10:32:09;45.10;22.20
24260;DHT22;12384;48.112;18.418;2022-08-05T10:34:59;45.30;22.10
24260;DHT22;12384;48.112;18.418;2022-08-05T10:37:29;45.40;22.60
24260;DHT22;12384;48.112;18.418;2022-08-05T10:40:19;45.50;21.80
24260;DHT22;12384;48.112;18.418;2022-08-05T10:43:00;45.70;21.70
24260;DHT22;12384;48.112;18.418;2022-08-05T10:45:31;45.70;22.30
24260;DHT22;12384;48.112;18.418;2022-08-05T10:48:30;45.80;22.40
24260;DHT22;12384;48.112;18.418;2022-08-05T10:51:21;45.90;20.80
24260;DHT22;12384;48.112;18.418;2022-08-05T10:53:57;45.90;22.10
24260;DHT22;12384;48.112;18.418;2022-08-05T10:56:29;46.00;22.20
24260;DHT22;12384;48.112;18.418;2022-08-05T10:59:05;46.00;20.80
24260;DHT22;12384;48.112;18.418;2022-08-05T11:02:06;45.90;21.10
24260;DHT22;12384;48.112;18.418;2022-08-05T11:04:54;46.00;19.80
24260;DHT22;12384;48.112;18.418;2022-08-05T11:10:32;46.20;19.30
24260;DHT22;12384;48.112;18.418;2022-08-05T11:13:04;46.20;22.30
24260;DHT22;12384;48.112;18.418;2022-08-05T11:15:37;46.20;24.70
24260;DHT22;12384;48.112;18.418;2022-08-05T11:18:29;46.30;24.10
24260;DHT22;12384;48.112;18.418;2022-08-05T11:21:00;46.20;23.20
24260;DHT22;12384;48.112;18.418;2022-08-05T11:23:42;46.00;23.30
24260;DHT22;12384;48.112;18.418;2022-08-05T11:26:38;46.00;24.00
24260;DHT22;12384;48.112;18.418;2022-08-05T11:29:33;46.00;24.20
24260;DHT22;12384;48.112;18.418;2022-08-05T11:32:24;46.10;22.30
24260;DHT22;12384;48.112;18.418;2022-08-05T11:34:54;46.20;28.70
24260;DHT22;12384;48.112;18.418;2022-08-05T11:37:58;46.20;29.00
24260;DHT22;12384;48.112;18.418;2022-08-05T11:40:58;46.30;28.50
24260;DHT22;12384;48.112;18.418;2022-08-05T11:43:55;46.20;29.90
24260;DHT22;12384;48.112;18.418;2022-08-05T11:46:33;46.10;33.00
24260;DHT22;12384;48.112;18.418;2022-08-05T11:49:06;46.10;35.30
24260;DHT22;12384;48.112;18.418;2022-08-05T11:51:36;46.40;35.40
24260;DHT22;12384;48.112;18.418;2022-08-05T11:54:21;46.50;34.00
24260;DHT22;12384;48.112;18.418;2022-08-05T11:57:02;46.50;33.50
24260;DHT22;12384;48.112;18.418;2022-08-05T11:59:50;46.60;36.00
24260;DHT22;12384;48.112;18.418;2022-08-05T12:02:27;46.60;39.00
24260;DHT22;12384;48.112;18.418;2022-08-05T12:05:02;46.50;33.20
24260;DHT22;12384;48.112;18.418;2022-08-05T12:07:36;46.20;33.20
24260;DHT22;12384;48.112;18.418;2022-08-05T12:10:26;46.10;35.30
24260;DHT22;12384;48.112;18.418;2022-08-05T12:13:13;46.10;40.60
24260;DHT22;12384;48.112;18.418;2022-08-05T12:16:04;46.10;34.80
24260;DHT22;12384;48.112;18.418;2022-08-05T12:18:42;46.30;39.40
24260;DHT22;12384;48.112;18.418;2022-08-05T12:21:22;46.40;35.40
24260;DHT22;12384;48.112;18.418;2022-08-05T12:24:01;46.30;40.20
24260;DHT22;12384;48.112;18.418;2022-08-05T12:26:34;46.20;35.50
24260;DHT22;12384;48.112;18.418;2022-08-05T12:29:04;46.30;38.00
24260;DHT22;12384;48.112;18.418;2022-08-05T12:31:45;46.50;39.10
24260;DHT22;12384;48.112;18.418;2022-08-05T12:34:22;46.80;39.90
24260;DHT22;12384;48.112;18.418;2022-08-05T12:36:55;47.10;39.80
24260;DHT22;12384;48.112;18.418;2022-08-05T12:39:25;47.40;38.70
24260;DHT22;12384;48.112;18.418;2022-08-05T12:42:09;47.70;43.10
24260;DHT22;12384;48.112;18.418;2022-08-05T12:44:41;47.80;33.10
24260;DHT22;12384;48.112;18.418;2022-08-05T12:47:11;48.10;45.10
24260;DHT22;12384;48.112;18.418;2022-08-05T12:49:45;48.00;40.70
24260;DHT22;12384;48.112;18.418;2022-08-05T12:52:34;48.00;41.70
24260;DHT22;12384;48.112;18.418;2022-08-05T12:55:18;47.70;39.00
24260;DHT22;12384;48.112;18.418;2022-08-05T12:57:51;47.70;34.90
24260;DHT22;12384;48.112;18.418;2022-08-05T13:00:42;47.60;40.70
24260;DHT22;12384;48.112;18.418;2022-08-05T13:03:34;47.60;41.20
24260;DHT22;12384;48.112;18.418;2022-08-05T13:06:14;47.70;42.80
24260;DHT22;12384;48.112;18.418;2022-08-05T13:08:46;47.80;39.20
24260;DHT22;12384;48.112;18.418;2022-08-05T13:11:19;47.70;34.80
24260;DHT22;12384;48.112;18.418;2022-08-05T13:14:16;47.70;39.00
24260;DHT22;12384;48.112;18.418;2022-08-05T13:16:52;47.70;40.20
24260;DHT22;12384;48.112;18.418;2022-08-05T13:19:24;47.70;43.00
24260;DHT22;12384;48.112;18.418;2022-08-05T13:22:13;47.30;37.70
24260;DHT22;12384;48.112;18.418;2022-08-05T13:24:58;47.50;42.10
24260;DHT22;12384;48.112;18.418;2022-08-05T13:27:33;47.70;41.60
24260;DHT22;12384;48.112;18.418;2022-08-05T13:30:06;47.90;39.90
24260;DHT22;12384;48.112;18.418;2022-08-05T13:32:56;48.10;36.10
24260;DHT22;12384;48.112;18.418;2022-08-05T13:35:28;48.10;42.30
24260;DHT22;12384;48.112;18.418;2022-08-05T13:38:17;47.90;37.60
24260;DHT22;12384;48.112;18.418;2022-08-05T13:40:56;48.00;42.60
24260;DHT22;12384;48.112;18.418;2022-08-05T13:43:26;47.90;41.40
24260;DHT22;12384;48.112;18.418;2022-08-05T13:46:14;47.80;44.20
24260;DHT22;12384;48.112;18.418;2022-08-05T13:49:03;47.70;44.30
24260;DHT22;12384;48.112;18.418;2022-08-05T13:51:38;47.40;44.10
24260;DHT22;12384;48.112;18.418;2022-08-05T13:54:14;47.30;44.10
24260;DHT22;12384;48.112;18.418;2022-08-05T13:56:52;47.20;43.80
24260;DHT22;12384;48.112;18.418;2022-08-05T13:59:22;46.90;41.00
24260;DHT22;12384;48.112;18.418;2022-08-05T14:01:53;46.60;45.60
24260;DHT22;12384;48.112;18.418;2022-08-05T14:04:28;46.30;41.50
24260;DHT22;12384;48.112;18.418;2022-08-05T14:07:19;46.10;50.90
24260;DHT22;12384;48.112;18.418;2022-08-05T14:10:09;45.40;40.50
24260;DHT22;12384;48.112;18.418;2022-08-05T14:12:41;44.60;41.60
24260;DHT22;12384;48.112;18.418;2022-08-05T14:15:15;44.10;46.20
24260;DHT22;12384;48.112;18.418;2022-08-05T14:18:05;43.50;46.80
24260;DHT22;12384;48.112;18.418;2022-08-05T14:20:45;42.70;48.90
24260;DHT22;12384;48.112;18.418;2022-08-05T14:23:15;42.00;48.20
24260;DHT22;12384;48.112;18.418;2022-08-05T14:25:52;41.40;49.60
24260;DHT22;12384;48.112;18.418;2022-08-05T14:28:27;40.90;48.30
24260;DHT22;12384;48.112;18.418;2022-08-05T14:30:56;40.40;49.50
24260;DHT22;12384;48.112;18.418;2022-08-05T14:33:26;40.10;55.20
24260;DHT22;12384;48.112;18.418;2022-08-05T14:36:15;39.70;51.20
24260;DHT22;12384;48.112;18.418;2022-08-05T14:38:48;39.40;52.60
24260;DHT22;12384;48.112;18.418;2022-08-05T14:41:17;39.10;54.00
24260;DHT22;12384;48.112;18.418;2022-08-05T14:43:48;38.90;53.10
24260;DHT22;12384;48.112;18.418;2022-08-05T14:46:35;38.60;53.70
24260;DHT22;12384;48.112;18.418;2022-08-05T14:49:04;38.40;54.80
24260;DHT22;12384;48.112;18.418;2022-08-05T14:51:34;38.20;53.30
24260;DHT22;12384;48.112;18.418;2022-08-05T14:54:05;38.00;50.20
24260;DHT22;12384;48.112;18.418;2022-08-05T14:56:54;37.90;54.10
24260;DHT22;12384;48.112;18.418;2022-08-05T14:59:25;37.70;58.10
24260;DHT22;12384;48.112;18.418;2022-08-05T15:02:01;37.70;56.70
24260;DHT22;12384;48.112;18.418;2022-08-05T15:09:24;37.60;54.80
24260;DHT22;12384;48.112;18.418;2022-08-05T15:12:13;37.50;59.20
24260;DHT22;12384;48.112;18.418;2022-08-05T15:14:45;37.50;57.30
24260;DHT22;12384;48.112;18.418;2022-08-05T15:17:17;37.40;59.70
24260;DHT22;12384;48.112;18.418;2022-08-05T15:20:06;37.40;55.20
24260;DHT22;12384;48.112;18.418;2022-08-05T15:22:46;37.30;55.50
24260;DHT22;12384;48.112;18.418;2022-08-05T15:25:22;37.30;57.80
24260;DHT22;12384;48.112;18.418;2022-08-05T15:28:11;37.20;58.00
24260;DHT22;12384;48.112;18.418;2022-08-05T15:30:43;37.20;57.30
24260;DHT22;12384;48.112;18.418;2022-08-05T15:33:18;37.20;58.50
24260;DHT22;12384;48.112;18.418;2022-08-05T15:36:08;37.20;58.20
24260;DHT22;12384;48.112;18.418;2022-08-05T15:38:50;37.10;58.50
24260;DHT22;12384;48.112;18.418;2022-08-05T15:41:39;37.10;59.20
24260;DHT22;12384;48.112;18.418;2022-08-05T15:44:25;37.10;57.60
24260;DHT22;12384;48.112;18.418;2022-08-05T15:46:59;37.00;56.60
24260;DHT22;12384;48.112;18.418;2022-08-05T15:49:29;37.00;54.30
24260;DHT22;12384;48.112;18.418;2022-08-05T15:52:18;37.00;56.70
24260;DHT22;12384;48.112;18.418;2022-08-05T15:55:09;37.00;57.50
24260;DHT22;12384;48.112;18.418;2022-08-05T15:57:42;36.90;57.00
24260;DHT22;12384;48.112;18.418;2022-08-05T16:00:15;36.80;56.80
24260;DHT22;12384;48.112;18.418;2022-08-05T16:03:00;36.80;55.30
24260;DHT22;12384;48.112;18.418;2022-08-05T16:05:29;36.80;58.30
24260;DHT22;12384;48.112;18.418;2022-08-05T16:07:58;36.70;57.60
24260;DHT22;12384;48.112;18.418;2022-08-05T16:10:27;36.70;55.80
24260;DHT22;12384;48.112;18.418;2022-08-05T16:12:57;36.60;55.20
24260;DHT22;12384;48.112;18.418;2022-08-05T16:15:26;36.60;54.20
24260;DHT22;12384;48.112;18.418;2022-08-05T16:18:01;36.50;55.60
24260;DHT22;12384;48.112;18.418;2022-08-05T16:20:35;36.40;54.90
24260;DHT22;12384;48.112;18.418;2022-08-05T16:23:04;36.40;55.80
24260;DHT22;12384;48.112;18.418;2022-08-05T16:25:35;36.30;55.70
24260;DHT22;12384;48.112;18.418;2022-08-05T16:28:05;36.30;57.00
24260;DHT22;12384;48.112;18.418;2022-08-05T16:30:37;36.30;57.20
24260;DHT22;12384;48.112;18.418;2022-08-05T16:33:09;36.20;57.00
24260;DHT22;12384;48.112;18.418;2022-08-05T16:35:41;36.20;55.00